sensor_id;sensor_type;location;lat;lon;timestamp;P1;durP1;ratioP1;P2;durP2;ratioP2
3967;SDS011;9221;42.646;23.380;2022-09-30T00:00:15;9.60;;;5.03;;
3967;SDS011;9221;42.646;23.380;2022-09-30T00:02:41;9.53;;;5.10;;
3967;SDS011;9221;42.646;23.380;2022-09-30T00:05:07;9.87;;;4.90;;
3967;SDS011;9221;42.646;23.380;2022-09-30T00:07:32;14.83;;;5.20;;
3967;SDS011;9221;42.646;23.380;2022-09-30T00:09:58;15.30;;;5.60;;
3967;SDS011;9221;42.646;23.380;2022-09-30T00:12:23;11.60;;;4.60;;
3967;SDS011;9221;42.646;23.380;2022-09-30T00:14:51;11.87;;;6.00;;
3967;SDS011;9221;42.646;23.380;2022-09-30T00:17:17;9.57;;;5.30;;
3967;SDS011;9221;42.646;23.380;2022-09-30T00:19:42;9.00;;;5.47;;
3967;SDS011;9221;42.646;23.380;2022-09-30T00:22:07;16.90;;;6.00;;
3967;SDS011;9221;42.646;23.380;2022-09-30T00:24:33;14.40;;;5.13;;
3967;SDS011;9221;42.646;23.380;2022-09-30T00:26:58;10.03;;;5.30;;
3967;SDS011;9221;42.646;23.380;2022-09-30T00:29:24;17.20;;;5.57;;
3967;SDS011;9221;42.646;23.380;2022-09-30T00:31:49;13.27;;;5.90;;
3967;SDS011;9221;42.646;23.380;2022-09-30T00:34:15;16.73;;;6.00;;
3967;SDS011;9221;42.646;23.380;2022-09-30T00:36:50;14.23;;;5.80;;
3967;SDS011;9221;42.646;23.380;2022-09-30T00:39:26;10.80;;;5.97;;
3967;SDS011;9221;42.646;23.380;2022-09-30T00:41:55;10.93;;;5.00;;
3967;SDS011;9221;42.646;23.380;2022-09-30T00:47:28;10.20;;;5.37;;
3967;SDS011;9221;42.646;23.380;2022-09-30T00:50:49;14.83;;;5.73;;
3967;SDS011;9221;42.646;23.380;2022-09-30T00:56:04;11.43;;;5.10;;
3967;SDS011;9221;42.646;23.380;2022-09-30T01:00:59;16.53;;;4.90;;
3967;SDS011;9221;42.646;23.380;2022-09-30T01:03:27;13.13;;;5.40;;
3967;SDS011;9221;42.646;23.380;2022-09-30T01:05:57;11.70;;;5.00;;
3967;SDS011;9221;42.646;23.380;2022-09-30T01:08:23;12.73;;;4.60;;
3967;SDS011;9221;42.646;23.380;2022-09-30T01:10:50;11.13;;;5.13;;
3967;SDS011;9221;42.646;23.380;2022-09-30T01:13:16;11.63;;;5.33;;
3967;SDS011;9221;42.646;23.380;2022-09-30T01:16:05;8.53;;;4.63;;
3967;SDS011;9221;42.646;23.380;2022-09-30T01:18:51;15.83;;;4.27;;
3967;SDS011;9221;42.646;23.380;2022-09-30T01:24:40;7.57;;;3.90;;
3967;SDS011;9221;42.646;23.380;2022-09-30T01:27:20;5.30;;;2.87;;
3967;SDS011;9221;42.646;23.380;2022-09-30T01:35:48;6.13;;;3.13;;
3967;SDS011;9221;42.646;23.380;2022-09-30T01:57:36;10.97;;;5.37;;
3967;SDS011;9221;42.646;23.380;2022-09-30T02:00:07;14.10;;;6.77;;
3967;SDS011;9221;42.646;23.380;2022-09-30T02:02:35;14.20;;;5.63;;
3967;SDS011;9221;42.646;23.380;2022-09-30T02:05:12;7.67;;;4.60;;
3967;SDS011;9221;42.646;23.380;2022-09-30T02:07:46;9.30;;;4.80;;
3967;SDS011;9221;42.646;23.380;2022-09-30T02:10:17;8.87;;;4.90;;
3967;SDS011;9221;42.646;23.380;2022-09-30T02:12:52;13.40;;;4.50;;
3967;SDS011;9221;42.646;23.380;2022-09-30T02:15:22;11.80;;;4.50;;
3967;SDS011;9221;42.646;23.380;2022-09-30T02:17:59;10.30;;;4.80;;
3967;SDS011;9221;42.646;23.380;2022-09-30T02:20:30;8.60;;;4.80;;
3967;SDS011;9221;42.646;23.380;2022-09-30T02:23:08;11.00;;;4.70;;
3967;SDS011;9221;42.646;23.380;2022-09-30T02:25:41;8.37;;;4.50;;
3967;SDS011;9221;42.646;23.380;2022-09-30T02:28:18;8.13;;;4.73;;
3967;SDS011;9221;42.646;23.380;2022-09-30T02:30:53;14.80;;;5.13;;
3967;SDS011;9221;42.646;23.380;2022-09-30T02:38:40;9.27;;;4.80;;
3967;SDS011;9221;42.646;23.380;2022-09-30T02:41:17;8.10;;;4.17;;
3967;SDS011;9221;42.646;23.380;2022-09-30T02:43:48;10.00;;;4.20;;
3967;SDS011;9221;42.646;23.380;2022-09-30T02:49:03;8.37;;;4.50;;
3967;SDS011;9221;42.646;23.380;2022-09-30T02:51:41;6.43;;;3.73;;
3967;SDS011;9221;42.646;23.380;2022-09-30T02:54:28;9.50;;;4.60;;
3967;SDS011;9221;42.646;23.380;2022-09-30T02:57:02;8.03;;;3.70;;
3967;SDS011;9221;42.646;23.380;2022-09-30T02:59:42;9.80;;;4.67;;
3967;SDS011;9221;42.646;23.380;2022-09-30T03:02:10;9.87;;;4.50;;
3967;SDS011;9221;42.646;23.380;2022-09-30T03:04:36;9.53;;;3.90;;
3967;SDS011;9221;42.646;23.380;2022-09-30T03:07:05;12.80;;;5.17;;
3967;SDS011;9221;42.646;23.380;2022-09-30T03:09:33;9.80;;;4.80;;
3967;SDS011;9221;42.646;23.380;2022-09-30T03:15:09;9.13;;;4.90;;
3967;SDS011;9221;42.646;23.380;2022-09-30T03:25:26;9.83;;;4.43;;
3967;SDS011;9221;42.646;23.380;2022-09-30T03:30:47;13.07;;;4.80;;
3967;SDS011;9221;42.646;23.380;2022-09-30T03:33:44;9.23;;;4.63;;
3967;SDS011;9221;42.646;23.380;2022-09-30T03:44:36;25.10;;;6.70;;
3967;SDS011;9221;42.646;23.380;2022-09-30T03:47:11;20.50;;;7.90;;
3967;SDS011;9221;42.646;23.380;2022-09-30T03:49:42;26.47;;;7.57;;
3967;SDS011;9221;42.646;23.380;2022-09-30T03:52:14;18.90;;;7.60;;
3967;SDS011;9221;42.646;23.380;2022-09-30T03:55:12;29.53;;;7.97;;
3967;SDS011;9221;42.646;23.380;2022-09-30T03:57:35;16.30;;;7.37;;
3967;SDS011;9221;42.646;23.380;2022-09-30T04:00:02;22.67;;;7.30;;
3967;SDS011;9221;42.646;23.380;2022-09-30T04:02:29;19.63;;;7.50;;
3967;SDS011;9221;42.646;23.380;2022-09-30T04:04:54;19.77;;;8.70;;
3967;SDS011;9221;42.646;23.380;2022-09-30T04:07:20;16.80;;;7.37;;
3967;SDS011;9221;42.646;23.380;2022-09-30T04:09:46;14.20;;;6.20;;
3967;SDS011;9221;42.646;23.380;2022-09-30T04:12:11;17.70;;;8.10;;
3967;SDS011;9221;42.646;23.380;2022-09-30T04:14:37;26.47;;;7.60;;
3967;SDS011;9221;42.646;23.380;2022-09-30T04:17:03;24.50;;;6.90;;
3967;SDS011;9221;42.646;23.380;2022-09-30T04:19:29;37.40;;;9.83;;
3967;SDS011;9221;42.646;23.380;2022-09-30T04:21:54;40.87;;;8.47;;
3967;SDS011;9221;42.646;23.380;2022-09-30T04:24:20;31.30;;;7.90;;
3967;SDS011;9221;42.646;23.380;2022-09-30T04:26:47;24.13;;;9.30;;
3967;SDS011;9221;42.646;23.380;2022-09-30T04:29:12;24.77;;;7.53;;
3967;SDS011;9221;42.646;23.380;2022-09-30T04:31:38;19.23;;;7.70;;
3967;SDS011;9221;42.646;23.380;2022-09-30T04:34:03;18.90;;;8.00;;
3967;SDS011;9221;42.646;23.380;2022-09-30T04:36:29;36.90;;;8.10;;
3967;SDS011;9221;42.646;23.380;2022-09-30T04:38:54;33.37;;;8.10;;
3967;SDS011;9221;42.646;23.380;2022-09-30T04:41:20;26.67;;;7.30;;
3967;SDS011;9221;42.646;23.380;2022-09-30T04:43:46;26.70;;;7.73;;
3967;SDS011;9221;42.646;23.380;2022-09-30T04:46:15;28.73;;;8.30;;
3967;SDS011;9221;42.646;23.380;2022-09-30T04:48:43;18.40;;;7.40;;
3967;SDS011;9221;42.646;23.380;2022-09-30T04:51:12;18.00;;;7.93;;
3967;SDS011;9221;42.646;23.380;2022-09-30T04:53:47;25.57;;;8.30;;
3967;SDS011;9221;42.646;23.380;2022-09-30T04:56:13;28.70;;;8.93;;
3967;SDS011;9221;42.646;23.380;2022-09-30T04:58:41;24.43;;;8.60;;
3967;SDS011;9221;42.646;23.380;2022-09-30T05:01:11;28.37;;;8.97;;
3967;SDS011;9221;42.646;23.380;2022-09-30T05:03:39;27.07;;;8.83;;
3967;SDS011;9221;42.646;23.380;2022-09-30T05:06:05;22.50;;;8.80;;
3967;SDS011;9221;42.646;23.380;2022-09-30T05:08:31;23.97;;;10.00;;
3967;SDS011;9221;42.646;23.380;2022-09-30T05:11:02;24.67;;;8.70;;
3967;SDS011;9221;42.646;23.380;2022-09-30T05:13:30;22.73;;;8.80;;
3967;SDS011;9221;42.646;23.380;2022-09-30T05:15:58;20.00;;;8.97;;
3967;SDS011;9221;42.646;23.380;2022-09-30T05:18:24;29.07;;;8.83;;
3967;SDS011;9221;42.646;23.380;2022-09-30T05:20:53;23.73;;;8.97;;
3967;SDS011;9221;42.646;23.380;2022-09-30T05:23:21;35.27;;;9.13;;
3967;SDS011;9221;42.646;23.380;2022-09-30T05:25:47;21.87;;;9.50;;
3967;SDS011;9221;42.646;23.380;2022-09-30T05:28:13;25.53;;;9.50;;
3967;SDS011;9221;42.646;23.380;2022-09-30T05:30:42;28.30;;;10.33;;
3967;SDS011;9221;42.646;23.380;2022-09-30T05:33:09;32.40;;;10.50;;
3967;SDS011;9221;42.646;23.380;2022-09-30T05:35:41;28.03;;;10.70;;
3967;SDS011;9221;42.646;23.380;2022-09-30T05:38:08;65.10;;;10.93;;
3967;SDS011;9221;42.646;23.380;2022-09-30T05:40:36;28.50;;;9.90;;
3967;SDS011;9221;42.646;23.380;2022-09-30T05:43:03;40.80;;;12.10;;
3967;SDS011;9221;42.646;23.380;2022-09-30T05:45:29;31.97;;;11.30;;
3967;SDS011;9221;42.646;23.380;2022-09-30T05:47:54;27.70;;;10.50;;
3967;SDS011;9221;42.646;23.380;2022-09-30T05:50:20;25.67;;;10.20;;
3967;SDS011;9221;42.646;23.380;2022-09-30T05:52:47;34.50;;;11.57;;
3967;SDS011;9221;42.646;23.380;2022-09-30T05:55:13;28.23;;;11.20;;
3967;SDS011;9221;42.646;23.380;2022-09-30T05:57:43;35.77;;;13.30;;
3967;SDS011;9221;42.646;23.380;2022-09-30T06:00:12;38.73;;;12.40;;
3967;SDS011;9221;42.646;23.380;2022-09-30T06:02:38;34.67;;;13.13;;
3967;SDS011;9221;42.646;23.380;2022-09-30T06:05:07;35.93;;;12.03;;
3967;SDS011;9221;42.646;23.380;2022-09-30T06:07:33;31.53;;;12.50;;
3967;SDS011;9221;42.646;23.380;2022-09-30T06:10:00;35.37;;;12.67;;
3967;SDS011;9221;42.646;23.380;2022-09-30T06:12:26;28.80;;;11.33;;
3967;SDS011;9221;42.646;23.380;2022-09-30T06:14:52;30.97;;;12.00;;
3967;SDS011;9221;42.646;23.380;2022-09-30T06:17:18;37.43;;;12.20;;
3967;SDS011;9221;42.646;23.380;2022-09-30T06:19:44;29.63;;;11.70;;
3967;SDS011;9221;42.646;23.380;2022-09-30T06:22:09;29.10;;;10.00;;
3967;SDS011;9221;42.646;23.380;2022-09-30T06:24:35;23.07;;;9.27;;
3967;SDS011;9221;42.646;23.380;2022-09-30T06:27:01;28.07;;;10.37;;
3967;SDS011;9221;42.646;23.380;2022-09-30T06:29:26;25.30;;;8.90;;
3967;SDS011;9221;42.646;23.380;2022-09-30T06:31:51;20.83;;;8.10;;
3967;SDS011;9221;42.646;23.380;2022-09-30T06:34:17;19.80;;;8.80;;
3967;SDS011;9221;42.646;23.380;2022-09-30T06:36:43;15.40;;;7.47;;
3967;SDS011;9221;42.646;23.380;2022-09-30T06:39:08;23.03;;;9.30;;
3967;SDS011;9221;42.646;23.380;2022-09-30T06:41:33;25.10;;;10.63;;
3967;SDS011;9221;42.646;23.380;2022-09-30T06:44:02;21.13;;;8.57;;
3967;SDS011;9221;42.646;23.380;2022-09-30T06:46:27;20.67;;;8.30;;
3967;SDS011;9221;42.646;23.380;2022-09-30T06:48:53;23.60;;;8.67;;
3967;SDS011;9221;42.646;23.380;2022-09-30T06:51:20;20.87;;;8.60;;
3967;SDS011;9221;42.646;23.380;2022-09-30T06:53:49;18.17;;;7.70;;
3967;SDS011;9221;42.646;23.380;2022-09-30T06:56:15;22.00;;;9.23;;
3967;SDS011;9221;42.646;23.380;2022-09-30T06:58:42;28.50;;;11.20;;
3967;SDS011;9221;42.646;23.380;2022-09-30T07:01:09;25.53;;;11.00;;
3967;SDS011;9221;42.646;23.380;2022-09-30T07:03:37;26.07;;;10.70;;
3967;SDS011;9221;42.646;23.380;2022-09-30T07:06:03;31.33;;;12.97;;
3967;SDS011;9221;42.646;23.380;2022-09-30T07:08:30;24.53;;;11.40;;
3967;SDS011;9221;42.646;23.380;2022-09-30T07:10:58;31.30;;;11.77;;
3967;SDS011;9221;42.646;23.380;2022-09-30T07:13:24;29.20;;;12.07;;
3967;SDS011;9221;42.646;23.380;2022-09-30T07:15:50;25.60;;;10.43;;
3967;SDS011;9221;42.646;23.380;2022-09-30T07:18:18;26.30;;;10.67;;
3967;SDS011;9221;42.646;23.380;2022-09-30T07:20:47;28.97;;;11.80;;
3967;SDS011;9221;42.646;23.380;2022-09-30T07:23:16;31.00;;;13.20;;
3967;SDS011;9221;42.646;23.380;2022-09-30T07:25:50;36.23;;;14.50;;
3967;SDS011;9221;42.646;23.380;2022-09-30T07:28:24;39.73;;;13.77;;
3967;SDS011;9221;42.646;23.380;2022-09-30T07:30:56;31.93;;;13.00;;
3967;SDS011;9221;42.646;23.380;2022-09-30T07:33:24;30.80;;;12.80;;
3967;SDS011;9221;42.646;23.380;2022-09-30T07:35:54;28.27;;;12.97;;
3967;SDS011;9221;42.646;23.380;2022-09-30T07:38:21;25.17;;;11.47;;
3967;SDS011;9221;42.646;23.380;2022-09-30T07:41:08;34.80;;;12.57;;
3967;SDS011;9221;42.646;23.380;2022-09-30T07:43:36;27.13;;;12.73;;
3967;SDS011;9221;42.646;23.380;2022-09-30T07:46:08;29.27;;;12.80;;
3967;SDS011;9221;42.646;23.380;2022-09-30T07:48:37;30.33;;;12.77;;
3967;SDS011;9221;42.646;23.380;2022-09-30T07:51:19;26.30;;;12.47;;
3967;SDS011;9221;42.646;23.380;2022-09-30T07:53:55;34.00;;;12.93;;
3967;SDS011;9221;42.646;23.380;2022-09-30T07:56:30;21.23;;;9.83;;
3967;SDS011;9221;42.646;23.380;2022-09-30T07:58:57;32.23;;;11.17;;
3967;SDS011;9221;42.646;23.380;2022-09-30T08:01:25;27.50;;;11.00;;
3967;SDS011;9221;42.646;23.380;2022-09-30T08:03:53;23.77;;;9.23;;
3967;SDS011;9221;42.646;23.380;2022-09-30T08:06:21;19.70;;;8.30;;
3967;SDS011;9221;42.646;23.380;2022-09-30T08:08:49;22.73;;;7.77;;
3967;SDS011;9221;42.646;23.380;2022-09-30T08:11:15;14.37;;;6.70;;
3967;SDS011;9221;42.646;23.380;2022-09-30T08:13:41;12.03;;;7.00;;
3967;SDS011;9221;42.646;23.380;2022-09-30T08:16:06;21.70;;;7.23;;
3967;SDS011;9221;42.646;23.380;2022-09-30T08:18:32;15.80;;;5.90;;
3967;SDS011;9221;42.646;23.380;2022-09-30T08:21:02;9.00;;;5.37;;
3967;SDS011;9221;42.646;23.380;2022-09-30T08:23:29;11.03;;;5.93;;
3967;SDS011;9221;42.646;23.380;2022-09-30T08:26:05;15.03;;;6.30;;
3967;SDS011;9221;42.646;23.380;2022-09-30T08:28:32;11.50;;;5.50;;
3967;SDS011;9221;42.646;23.380;2022-09-30T08:31:17;13.43;;;5.60;;
3967;SDS011;9221;42.646;23.380;2022-09-30T08:33:44;10.87;;;5.40;;
3967;SDS011;9221;42.646;23.380;2022-09-30T08:36:11;10.73;;;5.40;;
3967;SDS011;9221;42.646;23.380;2022-09-30T08:38:38;13.23;;;5.90;;
3967;SDS011;9221;42.646;23.380;2022-09-30T08:52:14;15.33;;;5.37;;
3967;SDS011;9221;42.646;23.380;2022-09-30T08:54:45;15.53;;;6.10;;
3967;SDS011;9221;42.646;23.380;2022-09-30T08:57:12;10.13;;;5.07;;
3967;SDS011;9221;42.646;23.380;2022-09-30T08:59:57;10.70;;;5.40;;
3967;SDS011;9221;42.646;23.380;2022-09-30T09:08:14;9.93;;;4.27;;
3967;SDS011;9221;42.646;23.380;2022-09-30T09:10:50;11.47;;;4.30;;
3967;SDS011;9221;42.646;23.380;2022-09-30T09:13:51;11.57;;;3.97;;
3967;SDS011;9221;42.646;23.380;2022-09-30T09:19:10;8.03;;;4.03;;
3967;SDS011;9221;42.646;23.380;2022-09-30T09:24:25;10.50;;;4.50;;
3967;SDS011;9221;42.646;23.380;2022-09-30T09:26:58;9.90;;;4.53;;
3967;SDS011;9221;42.646;23.380;2022-09-30T09:32:14;19.70;;;5.30;;
3967;SDS011;9221;42.646;23.380;2022-09-30T09:34:44;6.43;;;3.97;;
3967;SDS011;9221;42.646;23.380;2022-09-30T09:37:18;6.03;;;3.90;;
3967;SDS011;9221;42.646;23.380;2022-09-30T09:43:20;6.33;;;3.80;;
3967;SDS011;9221;42.646;23.380;2022-09-30T09:45:59;14.80;;;3.87;;
3967;SDS011;9221;42.646;23.380;2022-09-30T09:48:27;11.20;;;3.93;;
3967;SDS011;9221;42.646;23.380;2022-09-30T09:50:57;7.30;;;2.80;;
3967;SDS011;9221;42.646;23.380;2022-09-30T09:56:21;7.60;;;3.63;;
3967;SDS011;9221;42.646;23.380;2022-09-30T09:59:06;10.97;;;3.63;;
3967;SDS011;9221;42.646;23.380;2022-09-30T10:01:46;10.63;;;2.80;;
3967;SDS011;9221;42.646;23.380;2022-09-30T10:06:59;6.67;;;3.07;;
3967;SDS011;9221;42.646;23.380;2022-09-30T10:09:46;5.77;;;3.40;;
3967;SDS011;9221;42.646;23.380;2022-09-30T10:17:27;9.57;;;3.20;;
3967;SDS011;9221;42.646;23.380;2022-09-30T10:22:38;7.80;;;3.13;;
3967;SDS011;9221;42.646;23.380;2022-09-30T10:25:23;8.40;;;2.90;;
3967;SDS011;9221;42.646;23.380;2022-09-30T10:28:02;6.97;;;3.23;;
3967;SDS011;9221;42.646;23.380;2022-09-30T10:31:25;5.83;;;2.90;;
3967;SDS011;9221;42.646;23.380;2022-09-30T10:33:44;15.27;;;3.30;;
3967;SDS011;9221;42.646;23.380;2022-09-30T10:38:43;9.07;;;2.90;;
3967;SDS011;9221;42.646;23.380;2022-09-30T10:41:12;5.10;;;3.10;;
3967;SDS011;9221;42.646;23.380;2022-09-30T10:43:48;10.43;;;3.40;;
3967;SDS011;9221;42.646;23.380;2022-09-30T10:46:27;8.17;;;3.70;;
3967;SDS011;9221;42.646;23.380;2022-09-30T10:48:55;11.13;;;4.00;;
3967;SDS011;9221;42.646;23.380;2022-09-30T10:51:32;13.47;;;2.70;;
3967;SDS011;9221;42.646;23.380;2022-09-30T10:53:59;5.00;;;2.70;;
3967;SDS011;9221;42.646;23.380;2022-09-30T10:56:36;8.60;;;1.70;;
3967;SDS011;9221;42.646;23.380;2022-09-30T10:59:04;2.50;;;1.97;;
3967;SDS011;9221;42.646;23.380;2022-09-30T11:01:50;7.23;;;2.37;;
3967;SDS011;9221;42.646;23.380;2022-09-30T11:09:56;3.43;;;1.90;;
3967;SDS011;9221;42.646;23.380;2022-09-30T11:12:31;16.60;;;2.50;;
3967;SDS011;9221;42.646;23.380;2022-09-30T11:18:06;14.63;;;1.90;;
3967;SDS011;9221;42.646;23.380;2022-09-30T11:20:46;5.30;;;2.20;;
3967;SDS011;9221;42.646;23.380;2022-09-30T11:23:25;6.40;;;2.03;;
3967;SDS011;9221;42.646;23.380;2022-09-30T11:31:19;5.90;;;2.00;;
3967;SDS011;9221;42.646;23.380;2022-09-30T11:41:26;5.83;;;2.30;;
3967;SDS011;9221;42.646;23.380;2022-09-30T11:44:42;7.33;;;2.50;;
3967;SDS011;9221;42.646;23.380;2022-09-30T11:54:47;2.97;;;1.57;;
3967;SDS011;9221;42.646;23.380;2022-09-30T11:57:20;3.67;;;2.07;;
3967;SDS011;9221;42.646;23.380;2022-09-30T12:02:32;3.73;;;1.70;;
3967;SDS011;9221;42.646;23.380;2022-09-30T12:05:05;3.60;;;1.90;;
3967;SDS011;9221;42.646;23.380;2022-09-30T12:10:19;2.10;;;1.40;;
3967;SDS011;9221;42.646;23.380;2022-09-30T12:12:52;4.13;;;1.60;;
3967;SDS011;9221;42.646;23.380;2022-09-30T12:15:24;8.50;;;1.90;;
3967;SDS011;9221;42.646;23.380;2022-09-30T12:17:53;2.90;;;1.30;;
3967;SDS011;9221;42.646;23.380;2022-09-30T12:26:02;3.80;;;1.40;;
3967;SDS011;9221;42.646;23.380;2022-09-30T12:28:32;5.00;;;1.37;;
3967;SDS011;9221;42.646;23.380;2022-09-30T12:42:50;2.10;;;1.47;;
3967;SDS011;9221;42.646;23.380;2022-09-30T12:47:55;2.80;;;1.00;;
3967;SDS011;9221;42.646;23.380;2022-09-30T12:50:28;2.13;;;1.10;;
3967;SDS011;9221;42.646;23.380;2022-09-30T12:53:01;2.53;;;1.10;;
3967;SDS011;9221;42.646;23.380;2022-09-30T12:55:38;5.37;;;1.57;;
3967;SDS011;9221;42.646;23.380;2022-09-30T12:58:06;1.47;;;1.20;;
3967;SDS011;9221;42.646;23.380;2022-09-30T13:03:27;2.57;;;1.33;;
3967;SDS011;9221;42.646;23.380;2022-09-30T13:05:54;4.00;;;1.40;;
3967;SDS011;9221;42.646;23.380;2022-09-30T13:08:43;6.83;;;1.40;;
3967;SDS011;9221;42.646;23.380;2022-09-30T13:11:46;3.80;;;1.40;;
3967;SDS011;9221;42.646;23.380;2022-09-30T13:19:31;3.90;;;1.80;;
3967;SDS011;9221;42.646;23.380;2022-09-30T13:28:24;1.33;;;1.07;;
3967;SDS011;9221;42.646;23.380;2022-09-30T13:32:41;4.90;;;1.10;;
3967;SDS011;9221;42.646;23.380;2022-09-30T13:43:12;4.93;;;1.13;;
3967;SDS011;9221;42.646;23.380;2022-09-30T13:45:44;2.83;;;1.00;;
3967;SDS011;9221;42.646;23.380;2022-09-30T13:48:15;1.10;;;1.00;;
3967;SDS011;9221;42.646;23.380;2022-09-30T13:50:47;1.53;;;1.03;;
3967;SDS011;9221;42.646;23.380;2022-09-30T13:53:22;3.47;;;1.20;;
3967;SDS011;9221;42.646;23.380;2022-09-30T13:55:50;6.40;;;2.00;;
3967;SDS011;9221;42.646;23.380;2022-09-30T14:06:46;3.43;;;1.70;;
3967;SDS011;9221;42.646;23.380;2022-09-30T14:12:18;4.63;;;1.07;;
3967;SDS011;9221;42.646;23.380;2022-09-30T14:15:21;2.07;;;1.00;;
3967;SDS011;9221;42.646;23.380;2022-09-30T14:23:28;4.07;;;1.10;;
3967;SDS011;9221;42.646;23.380;2022-09-30T14:26:43;5.50;;;1.07;;
3967;SDS011;9221;42.646;23.380;2022-09-30T14:29:03;1.43;;;0.80;;
3967;SDS011;9221;42.646;23.380;2022-09-30T14:31:49;3.83;;;1.00;;
3967;SDS011;9221;42.646;23.380;2022-09-30T14:34:15;1.83;;;0.77;;
3967;SDS011;9221;42.646;23.380;2022-09-30T14:36:43;2.37;;;1.07;;
3967;SDS011;9221;42.646;23.380;2022-09-30T14:39:12;5.60;;;1.30;;
3967;SDS011;9221;42.646;23.380;2022-09-30T14:41:52;7.33;;;1.03;;
3967;SDS011;9221;42.646;23.380;2022-09-30T14:44:22;9.50;;;1.50;;
3967;SDS011;9221;42.646;23.380;2022-09-30T14:46:50;1.17;;;0.90;;
3967;SDS011;9221;42.646;23.380;2022-09-30T14:49:24;3.30;;;1.33;;
3967;SDS011;9221;42.646;23.380;2022-09-30T14:51:56;4.07;;;1.27;;
3967;SDS011;9221;42.646;23.380;2022-09-30T14:54:28;1.73;;;1.17;;
3967;SDS011;9221;42.646;23.380;2022-09-30T14:56:55;5.53;;;1.70;;
3967;SDS011;9221;42.646;23.380;2022-09-30T15:02:15;7.87;;;1.20;;
3967;SDS011;9221;42.646;23.380;2022-09-30T15:04:48;2.10;;;1.17;;
3967;SDS011;9221;42.646;23.380;2022-09-30T15:07:16;2.50;;;0.70;;
3967;SDS011;9221;42.646;23.380;2022-09-30T15:09:42;3.03;;;1.40;;
3967;SDS011;9221;42.646;23.380;2022-09-30T15:12:10;4.67;;;1.70;;
3967;SDS011;9221;42.646;23.380;2022-09-30T15:14:47;5.00;;;1.30;;
3967;SDS011;9221;42.646;23.380;2022-09-30T15:17:25;5.30;;;1.87;;
3967;SDS011;9221;42.646;23.380;2022-09-30T15:19:54;8.63;;;1.57;;
3967;SDS011;9221;42.646;23.380;2022-09-30T15:22:26;3.27;;;1.63;;
3967;SDS011;9221;42.646;23.380;2022-09-30T15:24:56;4.50;;;2.50;;
3967;SDS011;9221;42.646;23.380;2022-09-30T15:27:26;2.10;;;1.60;;
3967;SDS011;9221;42.646;23.380;2022-09-30T15:29:58;9.80;;;1.40;;
3967;SDS011;9221;42.646;23.380;2022-09-30T15:32:32;5.03;;;1.67;;
3967;SDS011;9221;42.646;23.380;2022-09-30T15:35:04;2.93;;;1.40;;
3967;SDS011;9221;42.646;23.380;2022-09-30T15:37:30;8.30;;;1.40;;
3967;SDS011;9221;42.646;23.380;2022-09-30T15:39:58;1.90;;;1.23;;
3967;SDS011;9221;42.646;23.380;2022-09-30T15:42:56;7.17;;;1.47;;
3967;SDS011;9221;42.646;23.380;2022-09-30T15:48:06;4.37;;;1.60;;
3967;SDS011;9221;42.646;23.380;2022-09-30T15:50:52;4.43;;;1.30;;
3967;SDS011;9221;42.646;23.380;2022-09-30T15:55:49;8.37;;;1.80;;
3967;SDS011;9221;42.646;23.380;2022-09-30T16:00:51;1.70;;;1.10;;
3967;SDS011;9221;42.646;23.380;2022-09-30T16:03:33;8.27;;;1.77;;
3967;SDS011;9221;42.646;23.380;2022-09-30T16:06:09;9.10;;;1.97;;
3967;SDS011;9221;42.646;23.380;2022-09-30T16:08:42;4.47;;;2.00;;
3967;SDS011;9221;42.646;23.380;2022-09-30T16:11:24;10.80;;;3.77;;
3967;SDS011;9221;42.646;23.380;2022-09-30T16:14:02;3.57;;;2.00;;
3967;SDS011;9221;42.646;23.380;2022-09-30T16:16:31;6.20;;;3.03;;
3967;SDS011;9221;42.646;23.380;2022-09-30T16:18:58;5.00;;;2.30;;
3967;SDS011;9221;42.646;23.380;2022-09-30T16:21:39;7.33;;;3.00;;
3967;SDS011;9221;42.646;23.380;2022-09-30T16:26:53;16.73;;;5.70;;
3967;SDS011;9221;42.646;23.380;2022-09-30T16:29:24;14.30;;;3.80;;
3967;SDS011;9221;42.646;23.380;2022-09-30T16:31:50;14.13;;;3.30;;
3967;SDS011;9221;42.646;23.380;2022-09-30T16:34:23;7.30;;;3.07;;
3967;SDS011;9221;42.646;23.380;2022-09-30T16:36:50;5.57;;;1.80;;
3967;SDS011;9221;42.646;23.380;2022-09-30T16:39:17;9.10;;;1.70;;
3967;SDS011;9221;42.646;23.380;2022-09-30T16:41:43;5.30;;;1.33;;
3967;SDS011;9221;42.646;23.380;2022-09-30T16:44:09;15.57;;;4.10;;
3967;SDS011;9221;42.646;23.380;2022-09-30T16:46:34;27.30;;;4.57;;
3967;SDS011;9221;42.646;23.380;2022-09-30T16:49:05;11.13;;;3.47;;
3967;SDS011;9221;42.646;23.380;2022-09-30T16:51:38;19.73;;;3.13;;
3967;SDS011;9221;42.646;23.380;2022-09-30T16:54:04;6.93;;;3.10;;
3967;SDS011;9221;42.646;23.380;2022-09-30T16:56:29;7.30;;;2.47;;
3967;SDS011;9221;42.646;23.380;2022-09-30T16:58:55;6.43;;;2.10;;
3967;SDS011;9221;42.646;23.380;2022-09-30T17:01:21;12.50;;;3.20;;
3967;SDS011;9221;42.646;23.380;2022-09-30T17:03:47;13.23;;;2.97;;
3967;SDS011;9221;42.646;23.380;2022-09-30T17:06:14;10.90;;;3.67;;
3967;SDS011;9221;42.646;23.380;2022-09-30T17:08:41;5.00;;;2.57;;
3967;SDS011;9221;42.646;23.380;2022-09-30T17:11:06;4.40;;;2.43;;
3967;SDS011;9221;42.646;23.380;2022-09-30T17:13:32;8.70;;;2.37;;
3967;SDS011;9221;42.646;23.380;2022-09-30T17:15:57;9.83;;;3.50;;
3967;SDS011;9221;42.646;23.380;2022-09-30T17:18:25;7.60;;;2.90;;
3967;SDS011;9221;42.646;23.380;2022-09-30T17:20:50;6.93;;;2.60;;
3967;SDS011;9221;42.646;23.380;2022-09-30T17:23:20;6.60;;;1.97;;
3967;SDS011;9221;42.646;23.380;2022-09-30T17:25:47;11.73;;;2.30;;
3967;SDS011;9221;42.646;23.380;2022-09-30T17:28:13;5.77;;;1.87;;
3967;SDS011;9221;42.646;23.380;2022-09-30T17:30:39;4.10;;;2.10;;
3967;SDS011;9221;42.646;23.380;2022-09-30T17:33:07;6.17;;;2.00;;
3967;SDS011;9221;42.646;23.380;2022-09-30T17:35:36;11.60;;;2.40;;
3967;SDS011;9221;42.646;23.380;2022-09-30T17:38:06;6.17;;;2.57;;
3967;SDS011;9221;42.646;23.380;2022-09-30T17:40:32;3.70;;;2.20;;
3967;SDS011;9221;42.646;23.380;2022-09-30T17:43:15;3.23;;;1.40;;
3967;SDS011;9221;42.646;23.380;2022-09-30T17:45:42;5.07;;;1.60;;
3967;SDS011;9221;42.646;23.380;2022-09-30T17:48:10;7.63;;;1.70;;
3967;SDS011;9221;42.646;23.380;2022-09-30T17:50:40;5.73;;;2.00;;
3967;SDS011;9221;42.646;23.380;2022-09-30T17:53:08;5.80;;;2.83;;
3967;SDS011;9221;42.646;23.380;2022-09-30T17:55:37;7.50;;;2.70;;
3967;SDS011;9221;42.646;23.380;2022-09-30T17:58:03;8.40;;;2.50;;
3967;SDS011;9221;42.646;23.380;2022-09-30T18:00:30;7.03;;;2.37;;
3967;SDS011;9221;42.646;23.380;2022-09-30T18:02:56;7.47;;;2.37;;
3967;SDS011;9221;42.646;23.380;2022-09-30T18:05:22;13.27;;;2.47;;
3967;SDS011;9221;42.646;23.380;2022-09-30T18:07:49;6.27;;;2.37;;
3967;SDS011;9221;42.646;23.380;2022-09-30T18:10:15;10.60;;;3.20;;
3967;SDS011;9221;42.646;23.380;2022-09-30T18:12:41;7.43;;;2.80;;
3967;SDS011;9221;42.646;23.380;2022-09-30T18:15:06;4.70;;;2.43;;
3967;SDS011;9221;42.646;23.380;2022-09-30T18:17:33;11.17;;;2.53;;
3967;SDS011;9221;42.646;23.380;2022-09-30T18:19:59;8.03;;;2.53;;
3967;SDS011;9221;42.646;23.380;2022-09-30T18:22:25;10.30;;;3.20;;
3967;SDS011;9221;42.646;23.380;2022-09-30T18:24:50;4.27;;;2.43;;
3967;SDS011;9221;42.646;23.380;2022-09-30T18:27:34;7.30;;;2.23;;
3967;SDS011;9221;42.646;23.380;2022-09-30T18:30:00;6.57;;;2.37;;
3967;SDS011;9221;42.646;23.380;2022-09-30T18:32:26;4.87;;;2.20;;
3967;SDS011;9221;42.646;23.380;2022-09-30T18:34:53;3.90;;;2.37;;
3967;SDS011;9221;42.646;23.380;2022-09-30T18:37:20;7.93;;;2.40;;
3967;SDS011;9221;42.646;23.380;2022-09-30T18:39:46;7.47;;;2.20;;
3967;SDS011;9221;42.646;23.380;2022-09-30T18:42:11;9.13;;;2.90;;
3967;SDS011;9221;42.646;23.380;2022-09-30T18:44:37;14.20;;;2.60;;
3967;SDS011;9221;42.646;23.380;2022-09-30T18:47:03;5.30;;;2.60;;
3967;SDS011;9221;42.646;23.380;2022-09-30T18:49:29;9.70;;;2.30;;
3967;SDS011;9221;42.646;23.380;2022-09-30T18:51:55;9.13;;;2.97;;
3967;SDS011;9221;42.646;23.380;2022-09-30T18:54:20;5.83;;;2.17;;